sensor_id;sensor_type;location;lat;lon;timestamp;P1;durP1;ratioP1;P2;durP2;ratioP2
28483;SDS011;15704;48.834;8.736;2023-04-08T00:00:08;35.08;;;18.70;;
28483;SDS011;15704;48.834;8.736;2023-04-08T00:02:36;45.78;;;20.15;;
28483;SDS011;15704;48.834;8.736;2023-04-08T00:05:05;40.33;;;19.73;;
28483;SDS011;15704;48.834;8.736;2023-04-08T00:07:33;44.03;;;20.35;;
28483;SDS011;15704;48.834;8.736;2023-04-08T00:10:00;48.97;;;20.77;;
28483;SDS011;15704;48.834;8.736;2023-04-08T00:12:27;41.20;;;21.67;;
28483;SDS011;15704;48.834;8.736;2023-04-08T00:14:53;50.03;;;22.95;;
28483;SDS011;15704;48.834;8.736;2023-04-08T00:17:20;43.38;;;21.75;;
28483;SDS011;15704;48.834;8.736;2023-04-08T00:19:48;49.50;;;22.65;;
28483;SDS011;15704;48.834;8.736;2023-04-08T00:22:15;42.72;;;21.17;;
28483;SDS011;15704;48.834;8.736;2023-04-08T00:24:41;46.05;;;21.70;;
28483;SDS011;15704;48.834;8.736;2023-04-08T00:27:08;44.08;;;21.25;;
28483;SDS011;15704;48.834;8.736;2023-04-08T00:29:35;39.80;;;19.55;;
28483;SDS011;15704;48.834;8.736;2023-04-08T00:32:01;40.20;;;19.75;;
28483;SDS011;15704;48.834;8.736;2023-04-08T00:34:29;41.80;;;21.65;;
28483;SDS011;15704;48.834;8.736;2023-04-08T00:36:55;35.55;;;20.05;;
28483;SDS011;15704;48.834;8.736;2023-04-08T00:39:22;38.72;;;19.42;;
28483;SDS011;15704;48.834;8.736;2023-04-08T00:41:49;40.63;;;19.77;;
28483;SDS011;15704;48.834;8.736;2023-04-08T00:44:16;35.97;;;18.67;;
28483;SDS011;15704;48.834;8.736;2023-04-08T00:46:43;41.85;;;19.52;;
28483;SDS011;15704;48.834;8.736;2023-04-08T00:49:09;35.67;;;18.08;;
28483;SDS011;15704;48.834;8.736;2023-04-08T00:51:37;38.75;;;18.30;;
28483;SDS011;15704;48.834;8.736;2023-04-08T00:54:04;41.17;;;18.55;;
28483;SDS011;15704;48.834;8.736;2023-04-08T00:56:32;33.83;;;17.25;;
28483;SDS011;15704;48.834;8.736;2023-04-08T00:59:00;34.60;;;17.98;;
28483;SDS011;15704;48.834;8.736;2023-04-08T01:04:06;32.65;;;18.02;;
28483;SDS011;15704;48.834;8.736;2023-04-08T01:06:58;39.47;;;19.02;;
28483;SDS011;15704;48.834;8.736;2023-04-08T01:09:38;33.75;;;17.02;;
28483;SDS011;15704;48.834;8.736;2023-04-08T01:12:11;40.47;;;19.00;;
28483;SDS011;15704;48.834;8.736;2023-04-08T01:14:45;38.13;;;19.00;;
28483;SDS011;15704;48.834;8.736;2023-04-08T01:17:13;40.70;;;18.67;;
28483;SDS011;15704;48.834;8.736;2023-04-08T01:19:44;42.55;;;20.17;;
28483;SDS011;15704;48.834;8.736;2023-04-08T01:22:25;37.90;;;19.17;;
28483;SDS011;15704;48.834;8.736;2023-04-08T01:25:04;37.90;;;20.08;;
28483;SDS011;15704;48.834;8.736;2023-04-08T01:27:34;42.13;;;21.10;;
28483;SDS011;15704;48.834;8.736;2023-04-08T01:30:02;45.35;;;21.05;;
28483;SDS011;15704;48.834;8.736;2023-04-08T01:32:31;37.97;;;18.17;;
28483;SDS011;15704;48.834;8.736;2023-04-08T01:35:00;42.15;;;20.05;;
28483;SDS011;15704;48.834;8.736;2023-04-08T01:37:28;38.78;;;18.17;;
28483;SDS011;15704;48.834;8.736;2023-04-08T01:39:56;37.53;;;18.98;;
28483;SDS011;15704;48.834;8.736;2023-04-08T01:42:24;34.65;;;19.15;;
28483;SDS011;15704;48.834;8.736;2023-04-08T01:45:02;42.30;;;19.48;;
28483;SDS011;15704;48.834;8.736;2023-04-08T01:47:30;43.33;;;19.15;;
28483;SDS011;15704;48.834;8.736;2023-04-08T01:49:57;35.85;;;18.77;;
28483;SDS011;15704;48.834;8.736;2023-04-08T01:52:26;43.88;;;18.70;;
28483;SDS011;15704;48.834;8.736;2023-04-08T01:54:55;36.22;;;18.10;;
28483;SDS011;15704;48.834;8.736;2023-04-08T01:57:26;35.05;;;19.75;;
28483;SDS011;15704;48.834;8.736;2023-04-08T01:59:57;37.42;;;18.17;;
28483;SDS011;15704;48.834;8.736;2023-04-08T02:02:26;40.55;;;19.10;;
28483;SDS011;15704;48.834;8.736;2023-04-08T02:04:54;38.38;;;21.20;;
28483;SDS011;15704;48.834;8.736;2023-04-08T02:07:21;41.15;;;20.52;;
28483;SDS011;15704;48.834;8.736;2023-04-08T02:09:49;34.60;;;18.23;;
28483;SDS011;15704;48.834;8.736;2023-04-08T02:12:16;33.97;;;18.17;;
28483;SDS011;15704;48.834;8.736;2023-04-08T02:14:43;39.17;;;19.65;;
28483;SDS011;15704;48.834;8.736;2023-04-08T02:17:18;41.85;;;19.60;;
28483;SDS011;15704;48.834;8.736;2023-04-08T02:20:04;41.65;;;20.08;;
28483;SDS011;15704;48.834;8.736;2023-04-08T02:23:02;40.13;;;18.67;;
28483;SDS011;15704;48.834;8.736;2023-04-08T02:25:33;47.65;;;19.25;;
28483;SDS011;15704;48.834;8.736;2023-04-08T02:28:03;42.78;;;20.02;;
28483;SDS011;15704;48.834;8.736;2023-04-08T02:30:36;42.25;;;20.83;;
28483;SDS011;15704;48.834;8.736;2023-04-08T02:33:13;43.42;;;20.55;;
28483;SDS011;15704;48.834;8.736;2023-04-08T02:35:43;44.83;;;20.02;;
28483;SDS011;15704;48.834;8.736;2023-04-08T02:38:11;44.72;;;21.23;;
28483;SDS011;15704;48.834;8.736;2023-04-08T02:40:37;41.45;;;18.70;;
28483;SDS011;15704;48.834;8.736;2023-04-08T02:43:04;40.22;;;18.85;;
28483;SDS011;15704;48.834;8.736;2023-04-08T02:45:32;46.08;;;19.33;;
28483;SDS011;15704;48.834;8.736;2023-04-08T02:48:03;40.35;;;18.15;;
28483;SDS011;15704;48.834;8.736;2023-04-08T02:50:31;38.15;;;17.55;;
28483;SDS011;15704;48.834;8.736;2023-04-08T02:52:58;40.80;;;18.75;;
28483;SDS011;15704;48.834;8.736;2023-04-08T02:55:25;34.40;;;17.02;;
28483;SDS011;15704;48.834;8.736;2023-04-08T02:57:52;37.85;;;16.80;;
28483;SDS011;15704;48.834;8.736;2023-04-08T03:00:18;35.25;;;17.25;;
28483;SDS011;15704;48.834;8.736;2023-04-08T03:02:45;34.50;;;17.40;;
28483;SDS011;15704;48.834;8.736;2023-04-08T03:05:12;38.13;;;18.55;;
28483;SDS011;15704;48.834;8.736;2023-04-08T03:07:41;34.47;;;16.98;;
28483;SDS011;15704;48.834;8.736;2023-04-08T03:10:08;30.33;;;15.82;;
28483;SDS011;15704;48.834;8.736;2023-04-08T03:12:44;32.53;;;16.15;;
28483;SDS011;15704;48.834;8.736;2023-04-08T03:15:11;37.58;;;17.38;;
28483;SDS011;15704;48.834;8.736;2023-04-08T03:17:38;37.58;;;17.00;;
28483;SDS011;15704;48.834;8.736;2023-04-08T03:20:14;37.65;;;17.88;;
28483;SDS011;15704;48.834;8.736;2023-04-08T03:22:40;40.08;;;17.73;;
28483;SDS011;15704;48.834;8.736;2023-04-08T03:25:07;37.03;;;17.13;;
28483;SDS011;15704;48.834;8.736;2023-04-08T03:27:34;34.67;;;16.45;;
28483;SDS011;15704;48.834;8.736;2023-04-08T03:30:01;33.03;;;17.10;;
28483;SDS011;15704;48.834;8.736;2023-04-08T03:32:28;43.28;;;18.77;;
28483;SDS011;15704;48.834;8.736;2023-04-08T03:34:55;39.33;;;18.38;;
28483;SDS011;15704;48.834;8.736;2023-04-08T03:37:22;40.92;;;18.50;;
28483;SDS011;15704;48.834;8.736;2023-04-08T03:39:57;37.05;;;16.63;;
28483;SDS011;15704;48.834;8.736;2023-04-08T03:42:44;40.08;;;17.52;;
28483;SDS011;15704;48.834;8.736;2023-04-08T03:45:11;34.05;;;16.92;;
28483;SDS011;15704;48.834;8.736;2023-04-08T03:47:38;41.75;;;18.90;;
28483;SDS011;15704;48.834;8.736;2023-04-08T03:50:05;45.63;;;20.17;;
28483;SDS011;15704;48.834;8.736;2023-04-08T03:52:33;41.45;;;20.33;;
28483;SDS011;15704;48.834;8.736;2023-04-08T03:55:00;39.35;;;18.02;;
28483;SDS011;15704;48.834;8.736;2023-04-08T03:57:27;39.60;;;20.13;;
28483;SDS011;15704;48.834;8.736;2023-04-08T03:59:53;44.15;;;20.77;;
28483;SDS011;15704;48.834;8.736;2023-04-08T04:02:20;52.72;;;21.60;;
28483;SDS011;15704;48.834;8.736;2023-04-08T04:04:47;49.67;;;21.92;;
28483;SDS011;15704;48.834;8.736;2023-04-08T04:07:14;50.30;;;20.77;;
28483;SDS011;15704;48.834;8.736;2023-04-08T04:09:42;40.75;;;19.48;;
28483;SDS011;15704;48.834;8.736;2023-04-08T04:12:09;38.13;;;19.88;;
28483;SDS011;15704;48.834;8.736;2023-04-08T04:14:36;39.78;;;18.15;;
28483;SDS011;15704;48.834;8.736;2023-04-08T04:17:03;41.90;;;20.23;;
28483;SDS011;15704;48.834;8.736;2023-04-08T04:19:29;41.88;;;20.02;;
28483;SDS011;15704;48.834;8.736;2023-04-08T04:21:57;38.97;;;18.50;;
28483;SDS011;15704;48.834;8.736;2023-04-08T04:24:24;47.25;;;18.40;;
28483;SDS011;15704;48.834;8.736;2023-04-08T04:26:51;38.00;;;19.10;;
28483;SDS011;15704;48.834;8.736;2023-04-08T04:29:18;39.47;;;19.15;;
28483;SDS011;15704;48.834;8.736;2023-04-08T04:31:44;49.67;;;19.17;;
28483;SDS011;15704;48.834;8.736;2023-04-08T04:34:11;46.53;;;20.80;;
28483;SDS011;15704;48.834;8.736;2023-04-08T04:36:38;41.65;;;21.42;;
28483;SDS011;15704;48.834;8.736;2023-04-08T04:39:05;45.28;;;20.90;;
28483;SDS011;15704;48.834;8.736;2023-04-08T04:41:32;46.45;;;22.35;;
28483;SDS011;15704;48.834;8.736;2023-04-08T04:44:00;36.53;;;18.13;;
28483;SDS011;15704;48.834;8.736;2023-04-08T04:46:27;41.85;;;19.35;;
28483;SDS011;15704;48.834;8.736;2023-04-08T04:48:54;43.35;;;21.45;;
28483;SDS011;15704;48.834;8.736;2023-04-08T04:51:21;43.97;;;21.85;;
28483;SDS011;15704;48.834;8.736;2023-04-08T04:53:48;45.80;;;21.38;;
28483;SDS011;15704;48.834;8.736;2023-04-08T04:56:15;45.08;;;21.98;;
28483;SDS011;15704;48.834;8.736;2023-04-08T04:58:42;40.80;;;19.65;;
28483;SDS011;15704;48.834;8.736;2023-04-08T05:01:09;48.28;;;22.17;;
28483;SDS011;15704;48.834;8.736;2023-04-08T05:03:36;36.50;;;16.20;;
28483;SDS011;15704;48.834;8.736;2023-04-08T05:06:03;42.58;;;19.52;;
28483;SDS011;15704;48.834;8.736;2023-04-08T05:08:30;40.60;;;19.67;;
28483;SDS011;15704;48.834;8.736;2023-04-08T05:10:56;55.03;;;20.05;;
28483;SDS011;15704;48.834;8.736;2023-04-08T05:13:27;43.45;;;19.58;;
28483;SDS011;15704;48.834;8.736;2023-04-08T05:15:54;43.88;;;20.88;;
28483;SDS011;15704;48.834;8.736;2023-04-08T05:18:23;41.22;;;19.08;;
28483;SDS011;15704;48.834;8.736;2023-04-08T05:20:50;44.72;;;20.13;;
28483;SDS011;15704;48.834;8.736;2023-04-08T05:23:17;42.35;;;19.60;;
28483;SDS011;15704;48.834;8.736;2023-04-08T05:25:44;45.38;;;20.17;;
28483;SDS011;15704;48.834;8.736;2023-04-08T05:28:11;40.72;;;19.83;;
28483;SDS011;15704;48.834;8.736;2023-04-08T05:30:37;40.10;;;20.20;;
28483;SDS011;15704;48.834;8.736;2023-04-08T05:33:04;45.55;;;18.50;;
28483;SDS011;15704;48.834;8.736;2023-04-08T05:35:31;53.58;;;22.30;;
28483;SDS011;15704;48.834;8.736;2023-04-08T05:37:58;53.13;;;23.50;;
28483;SDS011;15704;48.834;8.736;2023-04-08T05:40:25;48.20;;;21.73;;
28483;SDS011;15704;48.834;8.736;2023-04-08T05:42:52;49.15;;;21.67;;
28483;SDS011;15704;48.834;8.736;2023-04-08T05:45:18;49.15;;;21.33;;
28483;SDS011;15704;48.834;8.736;2023-04-08T05:47:45;39.63;;;18.35;;
28483;SDS011;15704;48.834;8.736;2023-04-08T05:50:18;48.13;;;20.88;;
28483;SDS011;15704;48.834;8.736;2023-04-08T05:55:12;45.13;;;21.15;;
28483;SDS011;15704;48.834;8.736;2023-04-08T05:57:39;47.03;;;23.13;;
28483;SDS011;15704;48.834;8.736;2023-04-08T06:00:07;54.17;;;24.80;;
28483;SDS011;15704;48.834;8.736;2023-04-08T06:02:35;55.45;;;25.00;;
28483;SDS011;15704;48.834;8.736;2023-04-08T06:05:03;57.22;;;24.10;;
28483;SDS011;15704;48.834;8.736;2023-04-08T06:07:31;57.05;;;25.70;;
28483;SDS011;15704;48.834;8.736;2023-04-08T06:09:58;61.30;;;26.20;;
28483;SDS011;15704;48.834;8.736;2023-04-08T06:12:25;56.72;;;25.95;;
28483;SDS011;15704;48.834;8.736;2023-04-08T06:14:55;57.67;;;25.95;;
28483;SDS011;15704;48.834;8.736;2023-04-08T06:17:24;44.33;;;22.58;;
28483;SDS011;15704;48.834;8.736;2023-04-08T06:20:17;37.88;;;19.70;;
28483;SDS011;15704;48.834;8.736;2023-04-08T06:22:44;37.17;;;19.65;;
28483;SDS011;15704;48.834;8.736;2023-04-08T06:25:11;37.25;;;19.50;;
28483;SDS011;15704;48.834;8.736;2023-04-08T06:30:31;36.70;;;18.20;;
28483;SDS011;15704;48.834;8.736;2023-04-08T06:33:06;27.27;;;14.75;;
28483;SDS011;15704;48.834;8.736;2023-04-08T06:35:33;31.30;;;16.35;;
28483;SDS011;15704;48.834;8.736;2023-04-08T06:38:01;25.25;;;14.80;;
28483;SDS011;15704;48.834;8.736;2023-04-08T06:40:41;28.15;;;14.38;;
28483;SDS011;15704;48.834;8.736;2023-04-08T06:43:08;29.55;;;14.95;;
28483;SDS011;15704;48.834;8.736;2023-04-08T06:45:35;28.33;;;14.55;;
28483;SDS011;15704;48.834;8.736;2023-04-08T06:48:02;31.50;;;14.05;;
28483;SDS011;15704;48.834;8.736;2023-04-08T06:50:28;23.67;;;12.38;;
28483;SDS011;15704;48.834;8.736;2023-04-08T06:52:55;23.38;;;11.77;;
28483;SDS011;15704;48.834;8.736;2023-04-08T06:55:22;22.20;;;11.02;;
28483;SDS011;15704;48.834;8.736;2023-04-08T06:57:49;22.05;;;10.57;;
28483;SDS011;15704;48.834;8.736;2023-04-08T07:00:16;25.77;;;11.60;;
28483;SDS011;15704;48.834;8.736;2023-04-08T07:02:43;26.10;;;13.05;;
28483;SDS011;15704;48.834;8.736;2023-04-08T07:05:10;24.15;;;11.65;;
28483;SDS011;15704;48.834;8.736;2023-04-08T07:07:37;23.15;;;12.27;;
28483;SDS011;15704;48.834;8.736;2023-04-08T07:10:03;25.20;;;11.88;;
28483;SDS011;15704;48.834;8.736;2023-04-08T07:12:33;19.98;;;11.85;;
28483;SDS011;15704;48.834;8.736;2023-04-08T07:15:00;23.27;;;11.68;;
28483;SDS011;15704;48.834;8.736;2023-04-08T07:17:26;26.30;;;12.20;;
28483;SDS011;15704;48.834;8.736;2023-04-08T07:19:53;25.15;;;12.52;;
28483;SDS011;15704;48.834;8.736;2023-04-08T07:22:21;23.88;;;11.23;;
28483;SDS011;15704;48.834;8.736;2023-04-08T07:24:48;23.80;;;11.48;;
28483;SDS011;15704;48.834;8.736;2023-04-08T07:27:15;21.70;;;11.65;;
28483;SDS011;15704;48.834;8.736;2023-04-08T07:29:42;18.38;;;10.45;;
28483;SDS011;15704;48.834;8.736;2023-04-08T07:32:09;22.63;;;10.43;;
28483;SDS011;15704;48.834;8.736;2023-04-08T07:34:36;24.95;;;10.32;;
28483;SDS011;15704;48.834;8.736;2023-04-08T07:37:05;19.60;;;10.02;;
28483;SDS011;15704;48.834;8.736;2023-04-08T07:39:40;17.42;;;9.77;;
28483;SDS011;15704;48.834;8.736;2023-04-08T07:42:06;18.95;;;9.85;;
28483;SDS011;15704;48.834;8.736;2023-04-08T07:44:33;16.17;;;10.00;;
28483;SDS011;15704;48.834;8.736;2023-04-08T07:47:00;18.48;;;10.35;;
28483;SDS011;15704;48.834;8.736;2023-04-08T07:49:27;18.55;;;9.63;;
28483;SDS011;15704;48.834;8.736;2023-04-08T07:51:53;17.58;;;9.85;;
28483;SDS011;15704;48.834;8.736;2023-04-08T07:54:20;16.95;;;9.90;;
28483;SDS011;15704;48.834;8.736;2023-04-08T07:56:47;17.50;;;9.75;;
28483;SDS011;15704;48.834;8.736;2023-04-08T07:59:14;22.23;;;9.40;;
28483;SDS011;15704;48.834;8.736;2023-04-08T08:01:40;18.48;;;10.57;;
28483;SDS011;15704;48.834;8.736;2023-04-08T08:04:26;18.17;;;10.68;;
28483;SDS011;15704;48.834;8.736;2023-04-08T08:06:53;22.50;;;10.48;;
28483;SDS011;15704;48.834;8.736;2023-04-08T08:09:20;20.40;;;10.52;;
28483;SDS011;15704;48.834;8.736;2023-04-08T08:11:46;18.27;;;9.90;;
28483;SDS011;15704;48.834;8.736;2023-04-08T08:14:13;18.70;;;10.18;;
28483;SDS011;15704;48.834;8.736;2023-04-08T08:16:40;22.45;;;10.70;;
28483;SDS011;15704;48.834;8.736;2023-04-08T08:19:07;17.67;;;9.70;;
28483;SDS011;15704;48.834;8.736;2023-04-08T08:21:37;19.75;;;11.30;;
28483;SDS011;15704;48.834;8.736;2023-04-08T08:24:04;18.48;;;11.50;;
28483;SDS011;15704;48.834;8.736;2023-04-08T08:26:35;21.55;;;11.13;;
28483;SDS011;15704;48.834;8.736;2023-04-08T08:29:04;20.65;;;12.10;;
28483;SDS011;15704;48.834;8.736;2023-04-08T08:31:34;20.55;;;10.85;;
28483;SDS011;15704;48.834;8.736;2023-04-08T08:34:00;18.30;;;10.45;;
28483;SDS011;15704;48.834;8.736;2023-04-08T08:36:28;19.25;;;11.13;;
28483;SDS011;15704;48.834;8.736;2023-04-08T08:38:54;20.13;;;11.35;;
28483;SDS011;15704;48.834;8.736;2023-04-08T08:41:21;20.05;;;11.73;;
28483;SDS011;15704;48.834;8.736;2023-04-08T08:43:48;21.85;;;11.82;;
28483;SDS011;15704;48.834;8.736;2023-04-08T08:46:16;21.75;;;12.00;;
28483;SDS011;15704;48.834;8.736;2023-04-08T08:48:44;20.27;;;12.10;;
28483;SDS011;15704;48.834;8.736;2023-04-08T08:51:20;21.05;;;12.00;;
28483;SDS011;15704;48.834;8.736;2023-04-08T08:53:53;21.02;;;11.93;;
28483;SDS011;15704;48.834;8.736;2023-04-08T08:56:20;19.98;;;12.38;;
28483;SDS011;15704;48.834;8.736;2023-04-08T08:58:47;20.80;;;11.27;;
28483;SDS011;15704;48.834;8.736;2023-04-08T09:04:16;17.33;;;11.50;;
28483;SDS011;15704;48.834;8.736;2023-04-08T09:06:45;19.58;;;11.10;;
28483;SDS011;15704;48.834;8.736;2023-04-08T09:09:15;16.60;;;10.70;;
28483;SDS011;15704;48.834;8.736;2023-04-08T09:11:45;18.00;;;11.10;;
28483;SDS011;15704;48.834;8.736;2023-04-08T09:14:20;22.00;;;11.35;;
28483;SDS011;15704;48.834;8.736;2023-04-08T09:16:47;18.52;;;10.57;;
28483;SDS011;15704;48.834;8.736;2023-04-08T09:19:15;16.38;;;9.73;;
28483;SDS011;15704;48.834;8.736;2023-04-08T09:21:42;17.30;;;11.23;;
28483;SDS011;15704;48.834;8.736;2023-04-08T09:24:26;18.77;;;10.77;;
28483;SDS011;15704;48.834;8.736;2023-04-08T09:26:54;14.60;;;10.27;;
28483;SDS011;15704;48.834;8.736;2023-04-08T09:29:24;20.30;;;11.35;;
28483;SDS011;15704;48.834;8.736;2023-04-08T09:31:57;17.60;;;10.75;;
28483;SDS011;15704;48.834;8.736;2023-04-08T09:34:25;17.55;;;11.48;;
28483;SDS011;15704;48.834;8.736;2023-04-08T09:36:53;17.60;;;11.05;;
28483;SDS011;15704;48.834;8.736;2023-04-08T09:39:21;18.48;;;11.57;;
28483;SDS011;15704;48.834;8.736;2023-04-08T09:41:48;17.65;;;10.57;;
28483;SDS011;15704;48.834;8.736;2023-04-08T09:44:17;16.80;;;10.68;;
28483;SDS011;15704;48.834;8.736;2023-04-08T09:49:30;17.60;;;11.43;;
28483;SDS011;15704;48.834;8.736;2023-04-08T09:54:42;22.70;;;11.40;;
28483;SDS011;15704;48.834;8.736;2023-04-08T09:57:16;20.25;;;12.70;;
28483;SDS011;15704;48.834;8.736;2023-04-08T09:59:51;19.08;;;11.38;;
28483;SDS011;15704;48.834;8.736;2023-04-08T10:02:29;21.20;;;11.48;;
28483;SDS011;15704;48.834;8.736;2023-04-08T10:05:02;17.73;;;10.90;;
28483;SDS011;15704;48.834;8.736;2023-04-08T10:07:34;19.88;;;12.25;;
28483;SDS011;15704;48.834;8.736;2023-04-08T10:10:01;18.80;;;11.82;;
28483;SDS011;15704;48.834;8.736;2023-04-08T10:12:29;17.58;;;9.38;;
28483;SDS011;15704;48.834;8.736;2023-04-08T10:17:50;16.15;;;10.25;;
28483;SDS011;15704;48.834;8.736;2023-04-08T10:23:12;21.48;;;10.80;;
28483;SDS011;15704;48.834;8.736;2023-04-08T10:30:41;17.05;;;11.15;;
28483;SDS011;15704;48.834;8.736;2023-04-08T10:36:12;17.93;;;10.50;;
28483;SDS011;15704;48.834;8.736;2023-04-08T10:38:40;17.25;;;10.25;;
28483;SDS011;15704;48.834;8.736;2023-04-08T10:41:11;14.05;;;9.90;;
28483;SDS011;15704;48.834;8.736;2023-04-08T10:43:46;17.40;;;10.38;;
28483;SDS011;15704;48.834;8.736;2023-04-08T10:46:13;13.85;;;9.27;;
28483;SDS011;15704;48.834;8.736;2023-04-08T10:48:40;17.73;;;9.48;;
28483;SDS011;15704;48.834;8.736;2023-04-08T10:51:07;13.00;;;9.48;;
28483;SDS011;15704;48.834;8.736;2023-04-08T10:53:37;14.80;;;9.90;;
28483;SDS011;15704;48.834;8.736;2023-04-08T10:56:07;13.98;;;9.93;;
28483;SDS011;15704;48.834;8.736;2023-04-08T10:58:51;18.25;;;10.57;;
28483;SDS011;15704;48.834;8.736;2023-04-08T11:01:20;15.77;;;9.95;;
28483;SDS011;15704;48.834;8.736;2023-04-08T11:03:48;24.13;;;15.88;;
28483;SDS011;15704;48.834;8.736;2023-04-08T11:06:16;15.55;;;9.82;;
28483;SDS011;15704;48.834;8.736;2023-04-08T11:08:43;15.23;;;10.13;;
28483;SDS011;15704;48.834;8.736;2023-04-08T11:11:10;15.18;;;9.77;;
28483;SDS011;15704;48.834;8.736;2023-04-08T11:13:41;15.63;;;9.90;;
28483;SDS011;15704;48.834;8.736;2023-04-08T11:16:19;20.27;;;10.43;;
28483;SDS011;15704;48.834;8.736;2023-04-08T11:18:48;18.67;;;10.95;;
28483;SDS011;15704;48.834;8.736;2023-04-08T11:21:15;18.02;;;10.63;;
28483;SDS011;15704;48.834;8.736;2023-04-08T11:23:42;15.65;;;9.43;;
28483;SDS011;15704;48.834;8.736;2023-04-08T11:26:09;16.17;;;10.27;;
28483;SDS011;15704;48.834;8.736;2023-04-08T11:28:36;16.77;;;9.82;;
28483;SDS011;15704;48.834;8.736;2023-04-08T11:31:03;15.88;;;9.15;;
28483;SDS011;15704;48.834;8.736;2023-04-08T11:33:31;17.70;;;10.00;;
28483;SDS011;15704;48.834;8.736;2023-04-08T11:35:59;25.45;;;13.48;;
28483;SDS011;15704;48.834;8.736;2023-04-08T11:38:29;15.02;;;9.30;;
28483;SDS011;15704;48.834;8.736;2023-04-08T11:40:56;14.23;;;8.98;;
28483;SDS011;15704;48.834;8.736;2023-04-08T11:43:24;13.48;;;8.88;;
28483;SDS011;15704;48.834;8.736;2023-04-08T11:45:51;17.10;;;9.73;;
28483;SDS011;15704;48.834;8.736;2023-04-08T11:48:18;17.80;;;9.30;;
28483;SDS011;15704;48.834;8.736;2023-04-08T11:50:45;18.88;;;9.15;;
28483;SDS011;15704;48.834;8.736;2023-04-08T11:53:23;15.52;;;9.10;;
28483;SDS011;15704;48.834;8.736;2023-04-08T11:55:50;12.10;;;8.40;;
28483;SDS011;15704;48.834;8.736;2023-04-08T11:58:17;12.82;;;8.45;;
28483;SDS011;15704;48.834;8.736;2023-04-08T12:00:44;21.05;;;9.75;;
28483;SDS011;15704;48.834;8.736;2023-04-08T12:03:11;11.93;;;8.45;;
28483;SDS011;15704;48.834;8.736;2023-04-08T12:05:39;13.98;;;9.70;;
28483;SDS011;15704;48.834;8.736;2023-04-08T12:08:06;21.05;;;14.68;;
28483;SDS011;15704;48.834;8.736;2023-04-08T12:10:32;12.68;;;8.50;;
28483;SDS011;15704;48.834;8.736;2023-04-08T12:12:59;12.27;;;8.00;;
28483;SDS011;15704;48.834;8.736;2023-04-08T12:15:26;13.00;;;9.00;;
28483;SDS011;15704;48.834;8.736;2023-04-08T12:17:52;16.70;;;9.85;;
28483;SDS011;15704;48.834;8.736;2023-04-08T12:20:19;15.95;;;9.23;;
28483;SDS011;15704;48.834;8.736;2023-04-08T12:22:46;16.92;;;10.07;;
28483;SDS011;15704;48.834;8.736;2023-04-08T12:25:13;15.13;;;9.32;;
28483;SDS011;15704;48.834;8.736;2023-04-08T12:27:39;18.05;;;11.45;;
28483;SDS011;15704;48.834;8.736;2023-04-08T12:30:07;17.23;;;9.45;;
28483;SDS011;15704;48.834;8.736;2023-04-08T12:32:34;12.65;;;9.32;;
28483;SDS011;15704;48.834;8.736;2023-04-08T12:35:01;15.02;;;9.38;;
28483;SDS011;15704;48.834;8.736;2023-04-08T12:37:27;15.05;;;9.63;;
28483;SDS011;15704;48.834;8.736;2023-04-08T12:39:54;13.65;;;9.07;;
28483;SDS011;15704;48.834;8.736;2023-04-08T12:42:21;16.17;;;9.63;;
28483;SDS011;15704;48.834;8.736;2023-04-08T12:44:48;14.80;;;9.40;;
28483;SDS011;15704;48.834;8.736;2023-04-08T12:47:14;16.50;;;9.73;;
28483;SDS011;15704;48.834;8.736;2023-04-08T12:49:41;13.70;;;9.18;;
28483;SDS011;15704;48.834;8.736;2023-04-08T12:52:15;15.57;;;10.38;;
28483;SDS011;15704;48.834;8.736;2023-04-08T12:54:42;12.75;;;9.23;;
28483;SDS011;15704;48.834;8.736;2023-04-08T12:57:09;13.88;;;9.50;;
28483;SDS011;15704;48.834;8.736;2023-04-08T12:59:36;16.50;;;9.60;;
28483;SDS011;15704;48.834;8.736;2023-04-08T13:02:04;15.63;;;10.18;;
28483;SDS011;15704;48.834;8.736;2023-04-08T13:04:32;14.68;;;9.13;;
28483;SDS011;15704;48.834;8.736;2023-04-08T13:06:58;13.13;;;8.68;;
28483;SDS011;15704;48.834;8.736;2023-04-08T13:09:26;15.95;;;9.63;;
28483;SDS011;15704;48.834;8.736;2023-04-08T13:11:52;16.65;;;9.00;;
28483;SDS011;15704;48.834;8.736;2023-04-08T13:14:20;17.50;;;8.68;;
28483;SDS011;15704;48.834;8.736;2023-04-08T13:16:46;12.95;;;8.43;;
28483;SDS011;15704;48.834;8.736;2023-04-08T13:19:13;13.32;;;9.07;;
28483;SDS011;15704;48.834;8.736;2023-04-08T13:21:40;13.45;;;8.70;;
28483;SDS011;15704;48.834;8.736;2023-04-08T13:24:09;13.10;;;8.48;;
28483;SDS011;15704;48.834;8.736;2023-04-08T13:26:36;10.50;;;8.18;;
28483;SDS011;15704;48.834;8.736;2023-04-08T13:29:02;13.27;;;8.40;;
28483;SDS011;15704;48.834;8.736;2023-04-08T13:31:30;14.55;;;8.45;;
28483;SDS011;15704;48.834;8.736;2023-04-08T13:33:57;18.80;;;9.70;;
28483;SDS011;15704;48.834;8.736;2023-04-08T13:36:23;14.32;;;9.07;;
28483;SDS011;15704;48.834;8.736;2023-04-08T13:38:52;17.05;;;9.57;;
28483;SDS011;15704;48.834;8.736;2023-04-08T13:41:19;17.38;;;8.93;;
28483;SDS011;15704;48.834;8.736;2023-04-08T13:43:48;19.85;;;11.38;;
28483;SDS011;15704;48.834;8.736;2023-04-08T13:46:15;17.08;;;9.75;;
28483;SDS011;15704;48.834;8.736;2023-04-08T13:48:43;15.00;;;9.43;;
28483;SDS011;15704;48.834;8.736;2023-04-08T13:51:11;62.92;;;39.10;;
28483;SDS011;15704;48.834;8.736;2023-04-08T13:53:38;31.27;;;14.73;;
28483;SDS011;15704;48.834;8.736;2023-04-08T13:56:04;30.77;;;16.30;;
28483;SDS011;15704;48.834;8.736;2023-04-08T13:58:31;16.70;;;9.52;;
28483;SDS011;15704;48.834;8.736;2023-04-08T14:00:58;12.50;;;8.48;;
28483;SDS011;15704;48.834;8.736;2023-04-08T14:03:25;21.17;;;10.30;;
28483;SDS011;15704;48.834;8.736;2023-04-08T14:05:53;12.68;;;9.02;;
28483;SDS011;15704;48.834;8.736;2023-04-08T14:08:19;13.68;;;8.27;;
28483;SDS011;15704;48.834;8.736;2023-04-08T14:10:51;12.60;;;8.25;;
28483;SDS011;15704;48.834;8.736;2023-04-08T14:13:18;14.82;;;10.15;;
28483;SDS011;15704;48.834;8.736;2023-04-08T14:15:45;15.35;;;8.93;;
28483;SDS011;15704;48.834;8.736;2023-04-08T14:18:12;16.45;;;9.93;;
28483;SDS011;15704;48.834;8.736;2023-04-08T14:20:39;13.18;;;8.43;;
28483;SDS011;15704;48.834;8.736;2023-04-08T14:23:06;9.75;;;7.63;;
28483;SDS011;15704;48.834;8.736;2023-04-08T14:25:33;11.70;;;8.63;;
28483;SDS011;15704;48.834;8.736;2023-04-08T14:27:59;12.93;;;8.95;;
28483;SDS011;15704;48.834;8.736;2023-04-08T14:30:26;12.43;;;8.30;;
28483;SDS011;15704;48.834;8.736;2023-04-08T14:32:56;16.13;;;9.25;;
28483;SDS011;15704;48.834;8.736;2023-04-08T14:35:24;14.88;;;9.68;;
28483;SDS011;15704;48.834;8.736;2023-04-08T14:37:51;17.20;;;9.00;;
28483;SDS011;15704;48.834;8.736;2023-04-08T14:40:18;14.15;;;9.18;;
28483;SDS011;15704;48.834;8.736;2023-04-08T14:42:45;13.90;;;9.43;;
28483;SDS011;15704;48.834;8.736;2023-04-08T14:45:11;16.73;;;8.93;;
28483;SDS011;15704;48.834;8.736;2023-04-08T14:47:38;12.98;;;9.23;;
28483;SDS011;15704;48.834;8.736;2023-04-08T14:50:05;12.18;;;8.35;;
28483;SDS011;15704;48.834;8.736;2023-04-08T14:52:32;12.45;;;8.00;;
28483;SDS011;15704;48.834;8.736;2023-04-08T14:54:59;12.60;;;8.40;;
28483;SDS011;15704;48.834;8.736;2023-04-08T14:57:26;12.90;;;6.95;;
28483;SDS011;15704;48.834;8.736;2023-04-08T14:59:53;15.20;;;9.52;;
28483;SDS011;15704;48.834;8.736;2023-04-08T15:02:20;12.60;;;8.32;;